createdAt,value
2022-07-28T00:02:16.587Z,16.62
2022-07-28T00:04:48.795Z,16.64
2022-07-28T00:07:40.813Z,16.66
2022-07-28T00:10:35.405Z,16.69
2022-07-28T00:13:27.705Z,16.71
2022-07-28T00:16:20.122Z,16.72
2022-07-28T00:19:12.491Z,16.75
2022-07-28T00:22:06.418Z,16.79
2022-07-28T00:24:38.872Z,16.80
2022-07-28T00:27:31.142Z,16.81
2022-07-28T00:30:23.277Z,16.82
2022-07-28T00:33:15.515Z,16.82
2022-07-28T00:36:10.357Z,16.75
2022-07-28T00:39:03.969Z,16.71
2022-07-28T00:41:56.001Z,16.71
2022-07-28T00:44:48.418Z,16.74
2022-07-28T00:47:40.458Z,16.77
2022-07-28T00:50:32.619Z,16.82
2022-07-28T00:53:25.562Z,16.87
2022-07-28T00:56:17.689Z,16.91
2022-07-28T00:59:10.759Z,16.93
2022-07-28T01:02:03.405Z,16.88
2022-07-28T01:04:55.491Z,16.84
2022-07-28T01:07:56.528Z,16.85
2022-07-28T01:11:02.292Z,16.86
2022-07-28T01:14:00.695Z,16.87
2022-07-28T01:16:58.243Z,16.89
2022-07-28T01:19:55.887Z,16.90
2022-07-28T01:23:06.932Z,16.85
2022-07-28T01:26:13.920Z,16.72
2022-07-28T01:29:20.075Z,16.60
2022-07-28T01:32:17.495Z,16.53
2022-07-28T01:35:14.095Z,16.50
2022-07-28T01:37:53.021Z,16.52
2022-07-28T01:40:48.564Z,16.52
2022-07-28T01:43:49.307Z,16.52
2022-07-28T01:46:42.923Z,16.55
2022-07-28T01:49:36.147Z,16.63
2022-07-28T01:52:30.192Z,16.71
2022-07-28T01:55:24.806Z,16.79
2022-07-28T01:58:18.299Z,16.84
2022-07-28T02:01:13.218Z,16.87
2022-07-28T02:04:08.787Z,16.95
2022-07-28T02:06:53.903Z,17.02
2022-07-28T02:09:48.093Z,17.01
2022-07-28T02:12:36.498Z,16.93
2022-07-28T02:15:30.938Z,16.84
2022-07-28T02:18:23.755Z,16.71
2022-07-28T02:21:16.237Z,16.62
2022-07-28T02:24:13.889Z,16.61
2022-07-28T02:27:03.205Z,16.63
2022-07-28T02:30:02.716Z,16.65
2022-07-28T02:32:58.065Z,16.67
2022-07-28T02:35:57.502Z,16.67
2022-07-28T02:38:52.775Z,16.64
2022-07-28T02:41:45.756Z,16.65
2022-07-28T02:44:43.773Z,16.65
2022-07-28T02:47:42.377Z,16.63
2022-07-28T02:50:34.679Z,16.63
2022-07-28T02:53:29.391Z,16.66
2022-07-28T02:56:23.134Z,16.73
2022-07-28T02:59:15.575Z,16.79
2022-07-28T03:02:08.677Z,16.88
2022-07-28T03:05:02.999Z,16.95
2022-07-28T03:07:59.919Z,16.98
2022-07-28T03:11:07.004Z,16.97
2022-07-28T03:13:59.109Z,16.98
2022-07-28T03:16:55.805Z,17.01
2022-07-28T03:19:51.085Z,16.99
2022-07-28T03:22:43.164Z,16.93
2022-07-28T03:25:45.251Z,16.90
2022-07-28T03:28:39.873Z,16.94
2022-07-28T03:31:33.047Z,17.01
2022-07-28T03:34:28.354Z,17.05
2022-07-28T03:37:26.955Z,17.08
2022-07-28T03:40:20.837Z,17.10
2022-07-28T03:43:14.198Z,17.11
2022-07-28T03:45:58.949Z,17.13
2022-07-28T03:48:51.115Z,17.18
2022-07-28T03:51:43.172Z,17.23
2022-07-28T03:54:36.256Z,17.27
2022-07-28T03:57:28.781Z,17.27
2022-07-28T04:00:22.160Z,17.29
2022-07-28T04:03:35.168Z,17.34
2022-07-28T04:06:26.392Z,17.38
2022-07-28T04:09:18.947Z,17.38
2022-07-28T04:12:11.615Z,17.35
2022-07-28T04:15:03.634Z,17.37
2022-07-28T04:17:56.753Z,17.43
2022-07-28T04:20:49.153Z,17.52
2022-07-28T04:23:41.572Z,17.61
2022-07-28T04:26:33.653Z,17.73
2022-07-28T04:29:27.340Z,17.83
2022-07-28T04:32:12.210Z,17.91
2022-07-28T04:35:04.300Z,17.95
2022-07-28T04:37:58.646Z,17.98
2022-07-28T04:40:39.720Z,18.05
2022-07-28T04:43:11.740Z,18.10
2022-07-28T04:46:02.584Z,18.15
2022-07-28T04:49:01.769Z,18.19
2022-07-28T04:51:53.793Z,18.25
2022-07-28T04:54:49.461Z,18.30
2022-07-28T04:57:41.456Z,18.35
2022-07-28T05:00:33.838Z,18.44
2022-07-28T05:03:25.858Z,18.50
2022-07-28T05:06:18.736Z,18.50
2022-07-28T05:09:10.858Z,18.55
2022-07-28T05:12:02.939Z,18.54
2022-07-28T05:14:54.987Z,18.53
2022-07-28T05:17:46.982Z,18.55
2022-07-28T05:20:37.573Z,18.54
2022-07-28T05:23:29.714Z,18.54
2022-07-28T05:26:22.060Z,18.61
2022-07-28T05:29:14.087Z,18.74
2022-07-28T05:32:17.448Z,18.89
2022-07-28T05:35:11.172Z,19.00
2022-07-28T05:38:06.388Z,19.13
2022-07-28T05:41:02.395Z,19.29
2022-07-28T05:43:54.372Z,19.38
2022-07-28T05:46:37.914Z,19.33
2022-07-28T05:49:19.858Z,19.43
2022-07-28T05:52:11.903Z,19.55
2022-07-28T05:55:03.927Z,19.67
2022-07-28T05:57:56.123Z,19.71
2022-07-28T06:00:49.245Z,19.73
2022-07-28T06:03:42.703Z,19.74
2022-07-28T06:06:34.769Z,19.75
2022-07-28T06:09:26.886Z,19.72
2022-07-28T06:12:12.186Z,19.59
2022-07-28T06:15:05.616Z,19.52
2022-07-28T06:17:53.309Z,19.45
2022-07-28T06:20:45.390Z,19.47
2022-07-28T06:23:37.550Z,19.48
2022-07-28T06:26:29.555Z,19.41
2022-07-28T06:29:16.209Z,19.45
2022-07-28T06:32:08.901Z,19.54
2022-07-28T06:35:01.229Z,19.68
2022-07-28T06:37:47.084Z,19.83
2022-07-28T06:40:29.144Z,20.03
2022-07-28T06:43:21.190Z,20.31
2022-07-28T06:46:18.683Z,20.59
2022-07-28T06:49:03.554Z,20.74
2022-07-28T06:51:55.634Z,20.87
2022-07-28T06:54:48.928Z,20.93
2022-07-28T06:57:41.110Z,21.01
2022-07-28T07:00:33.618Z,21.10
2022-07-28T07:03:25.712Z,21.15
2022-07-28T07:06:18.229Z,21.17
2022-07-28T07:09:10.440Z,21.21
2022-07-28T07:12:02.883Z,21.32
2022-07-28T07:14:55.170Z,21.37
2022-07-28T07:17:47.158Z,21.34
2022-07-28T07:20:39.177Z,21.34
2022-07-28T07:23:31.162Z,21.32
2022-07-28T07:26:15.801Z,21.33
2022-07-28T07:29:08.329Z,21.31
2022-07-28T07:31:59.597Z,21.25
2022-07-28T07:34:51.625Z,21.17
2022-07-28T07:37:43.660Z,21.08
2022-07-28T07:40:36.675Z,20.99
2022-07-28T07:43:28.961Z,21.03
2022-07-28T07:46:21.055Z,21.12
2022-07-28T07:49:13.164Z,21.21
2022-07-28T07:52:05.424Z,21.28
2022-07-28T07:54:59.180Z,21.23
2022-07-28T07:57:51.297Z,21.19
2022-07-28T08:00:43.368Z,21.23
2022-07-28T08:03:35.453Z,21.23
2022-07-28T08:06:28.846Z,21.27
2022-07-28T08:09:21.674Z,21.34
2022-07-28T08:12:13.666Z,21.33
2022-07-28T08:15:06.951Z,21.36
2022-07-28T08:17:59.065Z,21.48
2022-07-28T08:20:51.062Z,21.62
2022-07-28T08:23:43.123Z,21.71
2022-07-28T08:26:35.246Z,21.84
2022-07-28T08:29:20.179Z,22.07
2022-07-28T08:32:12.153Z,22.38
2022-07-28T08:35:30.405Z,22.84
2022-07-28T08:38:16.630Z,23.35
2022-07-28T08:41:00.348Z,23.70
2022-07-28T08:43:53.799Z,23.72
2022-07-28T08:46:48.540Z,23.91
2022-07-28T08:49:42.603Z,24.17
2022-07-28T08:52:35.783Z,24.36
2022-07-28T08:55:31.526Z,24.45
2022-07-28T08:58:24.771Z,24.51
2022-07-28T09:01:17.287Z,24.58
2022-07-28T09:03:50.000Z,24.72
2022-07-28T09:06:43.895Z,24.99
2022-07-28T09:09:36.000Z,25.25
2022-07-28T09:12:22.281Z,25.43
2022-07-28T09:15:04.425Z,25.51
2022-07-28T09:17:56.744Z,25.55
2022-07-28T09:20:48.852Z,25.68
2022-07-28T09:23:49.697Z,25.88
2022-07-28T09:27:02.689Z,26.01
2022-07-28T09:29:38.636Z,26.09
2022-07-28T09:32:31.483Z,26.29
2022-07-28T09:35:23.557Z,26.31
2022-07-28T09:38:16.195Z,26.25
2022-07-28T09:41:03.233Z,26.22
2022-07-28T09:43:56.107Z,26.13
2022-07-28T09:46:48.221Z,26.11
2022-07-28T09:49:45.281Z,26.14
2022-07-28T09:52:39.490Z,26.13
2022-07-28T09:55:35.462Z,26.00
2022-07-28T09:58:28.077Z,25.98
2022-07-28T10:01:21.164Z,25.77
2022-07-28T10:04:12.104Z,25.73
2022-07-28T10:07:11.548Z,25.56
2022-07-28T10:10:07.165Z,25.38
2022-07-28T10:13:07.276Z,25.43
2022-07-28T10:16:12.157Z,25.80
2022-07-28T10:19:06.581Z,25.99
2022-07-28T10:22:00.021Z,25.90
2022-07-28T10:24:55.053Z,25.80
2022-07-28T10:27:49.588Z,26.00
2022-07-28T10:30:42.750Z,26.22
2022-07-28T10:33:36.252Z,26.49
2022-07-28T10:36:28.885Z,26.65
2022-07-28T10:39:23.643Z,26.60
2022-07-28T10:42:12.443Z,26.63
2022-07-28T10:45:06.310Z,26.43
2022-07-28T10:48:00.755Z,26.14
2022-07-28T10:50:45.937Z,25.97
2022-07-28T10:53:47.101Z,25.93
2022-07-28T10:56:48.203Z,26.05
2022-07-28T10:59:58.331Z,26.16
2022-07-28T11:02:55.487Z,26.05
2022-07-28T11:05:48.100Z,25.85
2022-07-28T11:08:40.201Z,25.82
2022-07-28T11:11:50.104Z,25.98
2022-07-28T11:14:37.235Z,25.97
2022-07-28T11:17:33.503Z,25.90
2022-07-28T11:21:05.293Z,25.98
2022-07-28T11:24:00.275Z,26.07
2022-07-28T11:26:54.352Z,26.22
2022-07-28T11:29:48.877Z,26.41
2022-07-28T11:32:58.507Z,26.43
2022-07-28T11:35:58.947Z,26.23
2022-07-28T11:39:23.941Z,25.97
2022-07-28T11:42:31.009Z,25.77
2022-07-28T11:45:38.930Z,25.91
2022-07-28T11:48:33.070Z,26.21
2022-07-28T11:51:25.168Z,26.20
2022-07-28T11:54:18.416Z,26.11
2022-07-28T11:57:11.845Z,26.12
2022-07-28T12:00:08.205Z,26.27
2022-07-28T12:03:01.193Z,26.49
2022-07-28T12:06:00.539Z,26.61
2022-07-28T12:08:57.730Z,26.79
2022-07-28T12:11:54.237Z,26.64
2022-07-28T12:14:47.351Z,26.57
2022-07-28T12:17:40.574Z,26.63
2022-07-28T12:20:31.758Z,26.63
2022-07-28T12:23:38.629Z,26.70
2022-07-28T12:26:40.910Z,27.08
2022-07-28T12:29:36.099Z,27.23
2022-07-28T12:32:35.310Z,27.33
2022-07-28T12:35:28.144Z,27.39
2022-07-28T12:38:04.472Z,27.37
2022-07-28T12:40:57.036Z,27.36
2022-07-28T12:43:56.948Z,27.33
2022-07-28T12:46:50.055Z,27.26
2022-07-28T12:49:25.298Z,27.30
2022-07-28T12:52:22.433Z,27.32
2022-07-28T12:55:09.500Z,27.42
2022-07-28T12:58:02.235Z,27.41
2022-07-28T13:00:55.556Z,27.39
2022-07-28T13:03:53.801Z,27.52
2022-07-28T13:06:55.221Z,27.52
2022-07-28T13:09:59.974Z,27.47
2022-07-28T13:13:03.511Z,27.52
2022-07-28T13:16:13.113Z,27.60
2022-07-28T13:19:05.953Z,27.62
2022-07-28T13:22:04.081Z,27.67
2022-07-28T13:24:58.449Z,27.71
2022-07-28T13:27:54.917Z,27.72
2022-07-28T13:30:46.005Z,27.77
2022-07-28T13:33:38.002Z,27.85
2022-07-28T13:36:12.545Z,27.81
2022-07-28T13:39:05.529Z,27.85
2022-07-28T13:41:59.303Z,27.96
2022-07-28T13:44:52.539Z,28.22
2022-07-28T13:47:44.539Z,28.58
2022-07-28T13:50:29.529Z,28.71
2022-07-28T13:53:22.463Z,28.57
2022-07-28T13:56:14.719Z,28.35
2022-07-28T13:59:07.292Z,28.14
2022-07-28T14:02:01.451Z,27.80
2022-07-28T14:04:55.850Z,27.35
2022-07-28T14:07:49.312Z,27.05
2022-07-28T14:10:41.402Z,26.77
2022-07-28T14:13:40.144Z,26.47
2022-07-28T14:16:32.353Z,26.34
2022-07-28T14:19:37.863Z,26.53
2022-07-28T14:22:31.691Z,26.73
2022-07-28T14:25:23.877Z,26.96
2022-07-28T14:28:16.063Z,27.11
2022-07-28T14:31:08.475Z,27.17
2022-07-28T14:34:04.282Z,27.27
2022-07-28T14:36:56.553Z,27.32
2022-07-28T14:39:48.557Z,27.55
2022-07-28T14:42:40.635Z,27.70
2022-07-28T14:45:32.941Z,27.82
2022-07-28T14:48:45.307Z,27.92
2022-07-28T14:51:20.619Z,28.00
2022-07-28T14:54:13.858Z,27.91
2022-07-28T14:57:06.325Z,27.74
2022-07-28T14:59:40.745Z,27.51
2022-07-28T15:02:33.891Z,27.25
2022-07-28T15:05:26.217Z,27.14
2022-07-28T15:08:09.887Z,27.09
2022-07-28T15:11:00.474Z,27.07
2022-07-28T15:13:52.508Z,27.01
2022-07-28T15:16:45.363Z,26.95
2022-07-28T15:19:38.969Z,26.92
2022-07-28T15:22:21.969Z,26.93
2022-07-28T15:25:18.500Z,26.85
2022-07-28T15:28:10.684Z,26.80
2022-07-28T15:30:59.437Z,26.71
2022-07-28T15:33:57.587Z,26.69
2022-07-28T15:36:30.402Z,26.54
2022-07-28T15:39:23.634Z,26.34
2022-07-28T15:42:16.102Z,26.25
2022-07-28T15:45:10.008Z,26.28
2022-07-28T15:48:02.049Z,26.37
2022-07-28T15:50:54.171Z,26.47
2022-07-28T15:53:52.351Z,26.60
2022-07-28T15:56:44.402Z,26.77
2022-07-28T15:59:50.157Z,26.84
2022-07-28T16:02:42.956Z,26.88
2022-07-28T16:05:35.014Z,26.89
2022-07-28T16:08:27.164Z,26.94
2022-07-28T16:11:19.756Z,26.96
2022-07-28T16:14:11.949Z,26.97
2022-07-28T16:17:04.387Z,26.91
2022-07-28T16:19:48.485Z,27.01
2022-07-28T16:22:41.325Z,27.31
2022-07-28T16:25:34.804Z,27.52
2022-07-28T16:28:27.197Z,27.78
2022-07-28T16:31:19.271Z,27.94
2022-07-28T16:34:11.519Z,28.10
2022-07-28T16:37:05.608Z,28.29
2022-07-28T16:39:58.465Z,28.54
2022-07-28T16:42:52.268Z,28.88
2022-07-28T16:45:44.424Z,29.05
2022-07-28T16:48:36.436Z,29.13
2022-07-28T16:51:28.711Z,29.23
2022-07-28T16:54:20.947Z,29.34
2022-07-28T16:57:13.180Z,29.34
2022-07-28T17:00:05.794Z,29.40
2022-07-28T17:02:57.777Z,29.37
2022-07-28T17:05:49.882Z,29.24
2022-07-28T17:08:41.942Z,29.18
2022-07-28T17:11:33.952Z,29.25
2022-07-28T17:14:26.254Z,29.20
2022-07-28T17:17:18.329Z,28.85
2022-07-28T17:20:02.447Z,28.39
2022-07-28T17:22:54.922Z,27.90
2022-07-28T17:29:00.286Z,26.80
2022-07-28T17:31:52.397Z,26.38
2022-07-28T17:34:37.618Z,26.04
2022-07-28T17:37:29.735Z,25.71
2022-07-28T17:40:22.214Z,25.42
2022-07-28T17:43:20.363Z,25.11
2022-07-28T17:46:12.696Z,24.78
2022-07-28T17:49:05.721Z,24.49
2022-07-28T17:51:57.911Z,24.23
2022-07-28T17:55:07.785Z,23.98
2022-07-28T17:58:09.459Z,23.73
2022-07-28T18:01:10.060Z,23.52
2022-07-28T18:04:00.400Z,23.35
2022-07-28T18:06:52.995Z,23.18
2022-07-28T18:09:44.973Z,23.04
2022-07-28T18:12:37.078Z,22.87
2022-07-28T18:15:30.726Z,22.68
2022-07-28T18:18:23.083Z,22.49
2022-07-28T18:21:07.668Z,22.26
2022-07-28T18:23:59.636Z,22.03
2022-07-28T18:26:52.569Z,21.84
2022-07-28T18:29:44.547Z,21.66
2022-07-28T18:32:37.012Z,21.45
2022-07-28T18:35:32.262Z,21.21
2022-07-28T18:38:24.329Z,21.04
2022-07-28T18:41:19.116Z,20.95
2022-07-28T18:44:01.430Z,20.91
2022-07-28T18:46:53.562Z,20.83
2022-07-28T18:49:46.270Z,20.75
2022-07-28T18:52:40.811Z,20.64
2022-07-28T18:55:33.163Z,20.54
2022-07-28T18:58:25.284Z,20.44
2022-07-28T19:01:17.424Z,20.32
2022-07-28T19:04:08.065Z,20.22
2022-07-28T19:07:00.176Z,20.18
2022-07-28T19:09:52.214Z,20.14
2022-07-28T19:12:46.348Z,20.11
2022-07-28T19:15:38.374Z,20.05
2022-07-28T19:18:30.418Z,19.92
2022-07-28T19:21:22.548Z,19.78
2022-07-28T19:24:16.510Z,19.64
2022-07-28T19:27:08.980Z,19.49
2022-07-28T19:29:49.860Z,19.44
2022-07-28T19:32:42.641Z,19.40
2022-07-28T19:35:34.924Z,19.35
2022-07-28T19:38:26.989Z,19.33
2022-07-28T19:41:21.508Z,19.41
2022-07-28T19:44:13.809Z,19.48
2022-07-28T19:47:06.335Z,19.56
2022-07-28T19:49:58.400Z,19.68
2022-07-28T19:52:50.524Z,19.75
2022-07-28T19:55:50.756Z,19.71
2022-07-28T19:58:44.176Z,19.70
2022-07-28T20:01:36.265Z,19.72
2022-07-28T20:04:38.889Z,19.78
2022-07-28T20:07:31.991Z,19.83
2022-07-28T20:10:25.434Z,19.84
2022-07-28T20:13:17.440Z,19.90
2022-07-28T20:16:09.742Z,20.01
2022-07-28T20:18:54.459Z,20.03
2022-07-28T20:21:26.716Z,20.02
2022-07-28T20:24:19.942Z,20.03
2022-07-28T20:27:12.046Z,20.05
2022-07-28T20:30:04.217Z,20.07
2022-07-28T20:32:58.131Z,20.08
2022-07-28T20:35:30.223Z,20.09
2022-07-28T20:38:23.421Z,20.12
2022-07-28T20:41:08.385Z,20.16
2022-07-28T20:44:27.477Z,20.16
2022-07-28T20:47:12.496Z,20.17
2022-07-28T20:50:05.329Z,20.13
2022-07-28T20:52:57.475Z,20.05
2022-07-28T20:55:49.646Z,19.96
2022-07-28T20:58:42.037Z,19.87
2022-07-28T21:01:34.162Z,19.72
2022-07-28T21:04:27.498Z,19.56
2022-07-28T21:08:00.200Z,19.49
2022-07-28T21:10:33.043Z,19.45
2022-07-28T21:13:25.222Z,19.38
2022-07-28T21:16:17.906Z,19.30
2022-07-28T21:18:50.183Z,19.19
2022-07-28T21:21:42.229Z,19.04
2022-07-28T21:24:34.386Z,18.90
2022-07-28T21:27:26.673Z,18.73
2022-07-28T21:30:18.637Z,18.61
2022-07-28T21:33:11.049Z,18.52
2022-07-28T21:35:53.109Z,18.46
2022-07-28T21:38:45.567Z,18.41
2022-07-28T21:41:40.099Z,18.34
2022-07-28T21:44:25.751Z,18.26
2022-07-28T21:47:17.926Z,18.16
2022-07-28T21:49:50.033Z,18.07
2022-07-28T21:52:42.498Z,17.98
2022-07-28T21:55:34.539Z,17.91
2022-07-28T21:58:26.772Z,17.87
2022-07-28T22:01:18.872Z,17.84
2022-07-28T22:04:10.993Z,17.80
2022-07-28T22:07:03.052Z,17.78
2022-07-28T22:09:58.201Z,17.75
2022-07-28T22:12:51.153Z,17.70
2022-07-28T22:15:43.344Z,17.64
2022-07-28T22:18:35.422Z,17.57
2022-07-28T22:21:27.338Z,17.49
2022-07-28T22:24:19.528Z,17.42
2022-07-28T22:27:11.653Z,17.38
2022-07-28T22:30:04.560Z,17.35
2022-07-28T22:32:56.686Z,17.34
2022-07-28T22:35:31.480Z,17.32
2022-07-28T22:38:23.637Z,17.31
2022-07-28T22:41:15.888Z,17.28
2022-07-28T22:44:08.650Z,17.24
2022-07-28T22:47:00.812Z,17.17
2022-07-28T22:49:55.856Z,17.10
2022-07-28T22:52:48.289Z,17.00
2022-07-28T22:58:49.885Z,16.89
2022-07-28T23:01:42.198Z,16.84
2022-07-28T23:04:35.558Z,16.83
2022-07-28T23:07:52.986Z,16.86
2022-07-28T23:10:40.568Z,16.90
2022-07-28T23:13:25.193Z,16.89
2022-07-28T23:16:19.748Z,16.85
2022-07-28T23:19:12.210Z,16.79
2022-07-28T23:22:06.653Z,16.73
2022-07-28T23:24:58.975Z,16.68
2022-07-28T23:27:51.876Z,16.61
2022-07-28T23:30:45.565Z,16.55
2022-07-28T23:33:55.498Z,16.50
2022-07-28T23:36:49.771Z,16.49
2022-07-28T23:39:41.962Z,16.50
2022-07-28T23:42:34.642Z,16.49
2022-07-28T23:45:27.316Z,16.46
2022-07-28T23:48:19.794Z,16.42
2022-07-28T23:51:14.094Z,16.37
2022-07-28T23:54:06.345Z,16.33
2022-07-28T23:56:59.429Z,16.33
2022-07-28T23:59:54.027Z,16.34
